Raleigh County Memorial Airport Beckley US
ICAO: KBKW
IATA: BKW
Category: Medium
Scheduled Services: Yes

Elevation: 2504 ft
TransAlt. 18000 ft.

Airport Communications:
CHARLESTON APP/DEP:118.95
ASOS:121.55
AWOS 3:124.65
ELKINS RDO:117.7
CTAF/UNICOM:123

KBKW Zoom In..

If Map Doesn't Load, Click Here

Runways:

(A) RW 01 length 6750 ft width 150 ft
---- / hdg 13

(B) RW 10 length 5001 ft width 100 ft
---- / hdg 103

(C) RW 19 length 6750 ft width 150 ft
ILS 111.70 / hdg 193

(D) RW 28 length 5001 ft width 100 ft
---- / hdg 283

Location; KBKW
Day. 21 / Time. 14.51 Zulu
* Altimeter: 30.26
* Temperature: 24° c. 75.2°f.
* Wind from: 220° Speed 11 kn.
Dewpoint: 16° c.
Visibility: 10 Statute Miles.
Clouds: Clear (automated report).

KBKW 211451Z AUTO 22011KT 10SM CLR 24/16 A3026 RMK AO2 SLP209 T02390161 50002 TSNO


Wind From 220°
Speed 11 kn.

 
 
jpsmedia.com for Web Design worldairports.se 2018   terms of use